Магнитогорск

Карта отелей и гостиниц, располагающихся рядом с аэропортом Магнитогорск :

Магнитогорск Башкортостан 53° 23' 35.2788" N, 58° 45' 20.2788" E
Код аэродрома ИКАО
USCM
Код аэродрома RU
УСЦМ
Координаты
N53.39313° E058.75563°
Превышение над уровнем моря
436
Основная полоса
01/19
Курс магнитный
003,9/183,9
Длина основной ВПП
3250
Ширина основной ВПП
45
Покрытие основной ВПП
Твёрдое (цементобетон)
Освещение ВПП
Постоянное
Тип: 
Аэродром
Класс аэродрома: 
Международный
Принадлежность: 
ГА
Статус: 
Действующий
Сайт: 
http://www.airmgn.ru
E-mail аэродрома: 
Airmagnitka@bk.ru, Airport@mgn.chel.su, aviamag@mail.ru
Страна: 
Россия
Регион: 
Башкортостан
Дополнительная информация: 
Горный. Оператор: ФГУП "Магнитогорское Авиапредприятие". Нкр.=(600)м.
Погода: 

Авиационная погода в Магнитогорске

Погода METAR: 
USCM 281200Z 03010MPS 4500 -SHRA BR OVC010CB 02/02 Q1016 R36/290055 TEMPO 02015MPS 1200 SHSNRA BR VV004 RMK QFE724
Время наблюдения
2021-09-28T12:00:00Z
Температура C
2.0
Точка росы
2.0
Направление ветра
30
Скорость ветра (узлы)
19
Метео видимость
2.8
Явления погоды
-SHRA BR
Условия полета
IFR
Аэропорт подробнее: 

Найти трансфер

С помощью этой формы Вы можете найти трансфер из аэропорта Магнитогорск в город, аэропорт или вокзал:

Карта места

Javascript is required to view this map.

Погода в аэропортах:

Авиационная погода в Братске

Регион: 
Погода METAR: 
UIBB 281200Z 31004MPS 280V340 9999 -SHSN SCT033CB M00/M00 Q1016 R30/290150 NOSIG RMK QFE719/0959
Время наблюдения
2021-09-28T12:00:00Z
Температура C
0.0
Точка росы
0.0
Направление ветра
310
Скорость ветра (узлы)
8
Метео видимость
6.21
Явления погоды
-SHSN
Условия полета
VFR
Аэропорт подробнее: 

Авиационная погода в Нальчике

Регион: 
Погода METAR: 
URMN 281200Z 05003MPS 9999 -SHRA BKN022CB 14/09 Q1018 R24/110060 NOSIG RMK QFE727
Время наблюдения
2021-09-28T12:00:00Z
Температура C
14.0
Точка росы
9.0
Направление ветра
50
Скорость ветра (узлы)
6
Метео видимость
6.21
Явления погоды
-SHRA
Условия полета
MVFR
Аэропорт подробнее: 

Авиационная погода в Кокшетау

Регион: 
Погода METAR: 
UACK 281000Z 09011MPS 7000 -RA OVC007 03/02 Q1010 R02/250250 NOSIG RMK QFE734/0979
Время наблюдения
2021-09-28T10:00:00Z
Температура C
3.0
Точка росы
2.0
Направление ветра
90
Скорость ветра (узлы)
21
Метео видимость
4.35
Явления погоды
-RA
Условия полета
IFR
Аэропорт подробнее: 

Авиационная погода в Трабзоне

Регион: 
Погода METAR: 
LTCG 281150Z 02005KT 340V060 9000 -SHRA BKN028 20/15 Q1018 NOSIG RMK RWY29 34004KT 300V010
Время наблюдения
2021-09-28T11:50:00Z
Температура C
20.0
Точка росы
15.0
Направление ветра
20
Скорость ветра (узлы)
5
Метео видимость
5.59
Явления погоды
-SHRA
Условия полета
MVFR